Time;durP1;ratioP1;P1;durP2;ratioP2;P2;SDS_P1;SDS_P2;PMS_P1;PMS_P2;Temp;Humidity;BMP_temperature;BMP_pressure;BME280_temperature;BME280_humidity;BME280_pressure;Samples;Min_cycle;Max_cycle;Signal;HPM_P1;HPM_P2
2021/10/07 00:01:09;;;;;;;0.65;0.10;;;;;;;15.20;66.91;101200.25;4904211;29;20062;-76
2021/10/07 00:07:19;;;;;;;0.43;0.30;;;;;;;15.09;66.91;101191.16;4836407;29;20049;-75
2021/10/07 00:09:50;;;;;;;1.30;0.35;;;;;;;15.12;67.06;101206.31;4811520;29;20048;-75
2021/10/07 00:12:22;;;;;;;1.55;0.30;;;;;;;15.09;67.40;101204.94;4889249;29;20051;-74
2021/10/07 00:14:49;;;;;;;0.65;0.20;;;;;;;15.11;67.70;101205.50;4914125;29;20032;-74
2021/10/07 00:55:14;;;;;;;;;;;;;;;;;;;;;
2021/10/07 00:58:37;;;;;;;1.07;0.47;;;;;;;15.26;68.65;101209.28;4888478;29;20037;-73
2021/10/07 01:04:24;;;;;;;0.90;0.40;;;;;;;15.23;69.17;101205.19;4904979;29;20374;-74
2021/10/07 01:06:49;;;;;;;3.88;0.50;;;;;;;15.22;69.25;101205.47;4931248;29;20027;-73
2021/10/07 01:09:20;;;;;;;2.63;0.55;;;;;;;15.17;70.13;101195.25;4927109;29;20087;-74
2021/10/07 01:12:29;;;;;;;2.63;0.50;;;;;;;15.24;70.00;101206.00;4891173;29;20045;-74
2021/10/07 01:15:22;;;;;;;0.35;0.32;;;;;;;15.24;70.01;101195.81;4876771;29;20056;-74
2021/10/07 01:18:16;;;;;;;1.13;0.35;;;;;;;15.26;70.47;101210.16;4890110;29;20156;-72
2021/10/07 01:24:13;;;;;;;1.83;0.50;;;;;;;15.18;70.43;101192.22;4966688;23;20135;-74
2021/10/07 01:26:39;;;;;;;2.88;0.80;;;;;;;15.19;70.73;101191.13;4929403;29;20497;-71
2021/10/07 01:29:04;;;;;;;2.45;0.70;;;;;;;15.21;71.42;101193.59;4933082;29;20032;-73
2021/10/07 01:31:32;;;;;;;7.85;1.00;;;;;;;15.17;71.41;101196.09;4936465;29;20051;-72
2021/10/07 01:33:57;;;;;;;3.38;0.90;;;;;;;15.14;71.87;101191.16;4905650;29;20040;-73
2021/10/07 01:36:23;;;;;;;4.40;0.60;;;;;;;15.16;72.46;101191.69;4910607;29;20043;-74
2021/10/07 01:38:51;;;;;;;1.90;0.63;;;;;;;15.21;71.92;101190.03;4919957;29;20402;-75
2021/10/07 01:45:04;;;;;;;2.95;0.65;;;;;;;15.17;72.62;101190.59;1469622;27;20048;-73
2021/10/07 01:47:48;;;;;;;6.32;0.98;;;;;;;15.15;72.87;101192.78;4922895;29;20031;-74
2021/10/07 01:50:51;;;;;;;4.93;0.50;;;;;;;15.17;72.79;101192.50;4913096;29;20028;-75
2021/10/07 01:53:36;;;;;;;3.40;1.23;;;;;;;15.16;73.47;101191.69;4920555;29;20039;-74
2021/10/07 01:56:11;;;;;;;1.85;0.73;;;;;;;15.15;73.67;101195.53;4908769;29;20041;-74
2021/10/07 01:59:32;;;;;;;1.95;1.42;;;;;;;15.16;73.88;101191.69;4915899;29;20039;-74
2021/10/07 02:32:09;;;;;;;;;;;;;;;;;;;;;
2021/10/07 02:39:28;;;;;;;1.48;1.05;;;;;;;15.36;75.63;101176.22;4915622;29;20084;-77
2021/10/07 03:17:47;;;;;;;3.67;3.33;;;;;;;15.14;79.73;101160.00;4839703;29;20044;-76
2021/10/07 03:41:31;;;;;;;5.07;4.78;;;;;;;15.22;81.22;101175.16;4771907;29;20035;-77
2021/10/07 03:44:43;;;;;;;;;;;;;;;;;;;;;
2021/10/07 04:11:24;;;;;;;4.35;4.13;;;;;;;15.61;82.58;101222.19;4913482;29;20109;-77
2021/10/07 04:25:05;;;;;;;2.30;2.20;;;;;;;15.77;81.96;101209.16;4911415;29;20028;-77
2021/10/07 04:27:41;;;;;;;3.10;2.90;;;;;;;15.68;81.85;101199.81;4897221;29;20498;-76
2021/10/07 04:33:48;;;;;;;4.10;3.80;;;;;;;15.76;81.84;101204.75;4828811;29;20048;-77
2021/10/07 04:36:41;;;;;;;3.20;3.10;;;;;;;15.91;81.61;101230.66;4819161;29;20050;-77
2021/10/07 05:15:38;;;;;;;4.95;3.72;;;;;;;15.84;82.38;101229.03;4921757;29;20062;-77
2021/10/07 05:22:38;;;;;;;;;;;;;;;;;;;;;
2021/10/07 05:32:44;;;;;;;3.25;3.05;;;;;;;16.01;81.93;101236.13;4861277;29;20052;-76
2021/10/07 05:35:22;;;;;;;;;;;;;;;;;;;;;
2021/10/07 05:38:31;;;;;;;3.35;3.15;;;;;;;16.01;82.43;101225.91;4822175;29;20046;-75
2021/10/07 06:03:30;;;;;;;;;;;;;;;;;;;;;
2021/10/07 06:07:05;;;;;;;3.95;3.70;;;;;;;16.06;82.10;101249.88;4818547;29;20036;-74
2021/10/07 06:17:09;;;;;;;3.60;3.40;;;;;;;15.98;82.20;101261.53;4866295;29;20081;-75
2021/10/07 06:23:32;;;;;;;2.60;2.50;;;;;;;16.03;82.59;101255.97;4842576;29;20125;-76
2021/10/07 06:34:07;;;;;;;1.50;1.50;;;;;;;16.11;82.99;101269.19;4842922;29;20131;-72
2021/10/07 06:44:41;;;;;;;1.95;1.85;;;;;;;16.16;82.26;101266.38;2977642;23;20052;-70
2021/10/07 06:47:09;;;;;;;2.05;1.95;;;;;;;16.24;82.35;101278.78;4942638;28;20038;-73
2021/10/07 06:49:50;;;;;;;2.67;2.58;;;;;;;16.23;82.40;101277.13;4918702;29;20028;-71
2021/10/07 06:52:16;;;;;;;2.10;2.00;;;;;;;16.24;82.55;101284.31;4929418;29;20053;-75
2021/10/07 06:54:56;;;;;;;2.13;2.03;;;;;;;16.26;82.08;101272.97;4942854;29;20043;-74
2021/10/07 06:57:22;;;;;;;1.52;1.48;;;;;;;16.28;82.42;101281.78;4940601;29;20024;-72
2021/10/07 06:59:47;;;;;;;1.73;1.65;;;;;;;16.28;82.55;101271.59;4898051;29;20514;-74
2021/10/07 07:02:13;;;;;;;0.73;0.73;;;;;;;16.31;82.61;101267.41;4917404;29;20046;-73
2021/10/07 07:04:39;;;;;;;1.33;1.33;;;;;;;16.39;82.42;101280.63;4904503;29;20032;-73
2021/10/07 07:07:05;;;;;;;1.10;1.10;;;;;;;16.42;82.60;101282.81;4917768;29;20028;-73
2021/10/07 07:09:30;;;;;;;1.75;1.65;;;;;;;16.41;82.06;101283.91;4888470;29;20031;-73
2021/10/07 07:11:56;;;;;;;1.67;1.58;;;;;;;16.38;82.52;101279.81;4902494;29;20063;-73
2021/10/07 07:14:21;;;;;;;1.10;1.10;;;;;;;16.43;82.20;101287.25;4923103;29;20038;-73
2021/10/07 07:16:47;;;;;;;1.83;1.67;;;;;;;16.47;82.34;101293.84;4868307;29;20035;-74
2021/10/07 07:19:13;;;;;;;1.83;1.73;;;;;;;16.49;82.01;101302.66;4932644;29;20038;-72
2021/10/07 07:21:38;;;;;;;1.58;1.48;;;;;;;16.46;82.18;101297.72;4891587;29;20034;-73
2021/10/07 07:24:05;;;;;;;1.83;1.73;;;;;;;16.49;82.05;101304.59;4903790;29;20031;-73
2021/10/07 07:26:33;;;;;;;1.15;1.15;;;;;;;16.49;82.19;101294.38;4901085;29;20032;-74
2021/10/07 07:29:02;;;;;;;4.03;0.50;;;;;;;16.53;82.53;101295.47;4931715;29;20114;-73
2021/10/07 07:31:28;;;;;;;0.80;0.80;;;;;;;16.64;82.28;101298.16;4922817;29;20100;-74
2021/10/07 07:33:54;;;;;;;0.40;0.40;;;;;;;16.70;81.73;101302.53;4929255;29;20056;-72
2021/10/07 07:36:22;;;;;;;1.00;1.00;;;;;;;16.82;81.67;101307.69;4931531;29;20039;-73
2021/10/07 07:38:50;;;;;;;0.40;0.40;;;;;;;16.83;81.37;101307.41;4923839;29;20027;-72
2021/10/07 07:41:16;;;;;;;2.10;2.00;;;;;;;16.81;82.05;101304.13;4935039;29;20034;-73
2021/10/07 07:43:42;;;;;;;1.45;1.40;;;;;;;16.87;81.41;101311.28;4932041;29;20052;-72
2021/10/07 07:46:08;;;;;;;1.23;1.23;;;;;;;16.95;81.35;101311.78;4932358;29;20079;-73
2021/10/07 07:48:34;;;;;;;1.58;1.55;;;;;;;16.98;81.47;101311.22;4913590;29;20374;-73
2021/10/07 07:51:00;;;;;;;1.85;1.77;;;;;;;16.99;81.71;101316.44;4937127;29;20023;-73
2021/10/07 07:53:25;;;;;;;1.67;1.67;;;;;;;17.01;80.94;101316.16;4923423;29;20045;-73
2021/10/07 07:55:51;;;;;;;2.03;1.92;;;;;;;17.04;81.62;101310.06;4929771;29;20031;-73
2021/10/07 07:58:18;;;;;;;0.90;0.90;;;;;;;17.12;81.37;101314.97;4919611;29;20082;-72
2021/10/07 08:00:45;;;;;;;1.50;1.50;;;;;;;17.22;81.74;101309.34;4931965;29;20019;-73
2021/10/07 08:03:10;;;;;;;1.20;1.20;;;;;;;17.33;81.29;101303.75;4932875;29;20023;-72
2021/10/07 08:05:36;;;;;;;2.83;2.63;;;;;;;17.40;81.60;101305.03;4904934;29;20038;-73
2021/10/07 08:08:01;;;;;;;1.80;1.70;;;;;;;17.44;80.81;101311.66;4921997;29;20046;-73
2021/10/07 08:10:27;;;;;;;2.03;1.92;;;;;;;17.46;81.01;101314.13;4926466;29;20039;-72
2021/10/07 08:12:53;;;;;;;1.30;1.30;;;;;;;17.51;81.12;101307.72;4932276;29;20028;-72
2021/10/07 08:15:18;;;;;;;0.68;0.68;;;;;;;17.59;81.01;101307.91;4923305;29;20043;-72
2021/10/07 08:17:44;;;;;;;1.40;1.30;;;;;;;17.67;81.24;101311.16;4912719;29;20024;-71
2021/10/07 08:20:12;;;;;;;2.17;2.08;;;;;;;17.69;81.20;101308.94;4922429;29;20059;-72
2021/10/07 08:22:39;;;;;;;1.40;1.40;;;;;;;17.67;80.57;101308.38;4933044;29;20030;-72
2021/10/07 08:25:05;;;;;;;1.52;1.52;;;;;;;17.68;81.08;101307.28;4933454;29;20034;-73
2021/10/07 08:27:31;;;;;;;1.27;1.27;;;;;;;17.71;80.89;101326.03;4930022;29;20034;-72
2021/10/07 08:29:56;;;;;;;1.10;1.10;;;;;;;17.73;80.68;101319.13;4930017;29;20091;-73
2021/10/07 08:32:25;;;;;;;1.35;1.35;;;;;;;17.73;81.08;101318.31;4933177;29;20036;-73
2021/10/07 08:34:51;;;;;;;1.90;1.80;;;;;;;17.75;80.74;101316.06;4930599;29;20044;-73
2021/10/07 08:37:17;;;;;;;5.15;1.23;;;;;;;17.80;81.08;101305.75;4926742;29;20411;-72
2021/10/07 08:39:42;;;;;;;0.57;0.57;;;;;;;17.92;80.77;101308.16;4909535;29;20032;-72
2021/10/07 08:42:10;;;;;;;1.30;1.30;;;;;;;17.99;80.64;101315.25;4929812;29;20508;-76
2021/10/07 08:44:36;;;;;;;1.33;1.33;;;;;;;17.97;80.52;101323.88;4931383;29;20048;-73
2021/10/07 08:47:01;;;;;;;1.15;1.15;;;;;;;17.99;80.44;101326.34;4918125;29;20051;-72
2021/10/07 08:49:32;;;;;;;1.15;1.15;;;;;;;18.03;80.27;101327.41;4917249;29;20385;-73
2021/10/07 08:51:58;;;;;;;1.63;1.52;;;;;;;18.10;80.23;101337.00;4931702;29;20072;-73
2021/10/07 08:54:25;;;;;;;2.15;0.90;;;;;;;18.15;80.27;101330.59;4898057;29;20414;-73
2021/10/07 08:56:51;;;;;;;0.80;0.80;;;;;;;18.26;79.80;101331.28;4900435;29;20434;-72
2021/10/07 08:59:19;;;;;;;0.93;0.93;;;;;;;18.42;80.34;101338.25;4928346;29;20043;-73
2021/10/07 09:01:49;;;;;;;1.80;1.73;;;;;;;18.44;79.58;101338.81;4932716;29;20047;-73
2021/10/07 09:04:24;;;;;;;0.98;0.98;;;;;;;18.42;79.82;101334.69;4908562;29;20038;-73
2021/10/07 09:06:59;;;;;;;1.65;1.40;;;;;;;18.44;79.88;101349.03;4930238;29;20068;-72
2021/10/07 09:09:26;;;;;;;1.10;1.10;;;;;;;18.43;79.37;101341.88;4927044;29;20045;-71
2021/10/07 09:11:57;;;;;;;1.23;1.17;;;;;;;18.48;79.27;101352.88;4922281;29;20505;-73
2021/10/07 09:14:37;;;;;;;1.67;1.65;;;;;;;18.56;79.83;101346.69;4929483;29;20035;-75
2021/10/07 09:17:05;;;;;;;1.88;1.77;;;;;;;18.58;79.28;101355.50;4932819;29;20170;-75
2021/10/07 09:19:37;;;;;;;1.90;1.80;;;;;;;18.66;79.42;101346.53;4926254;29;20034;-76
2021/10/07 09:22:17;;;;;;;1.92;1.83;;;;;;;18.79;79.21;101361.59;4914028;29;20544;-75
2021/10/07 09:24:57;;;;;;;1.52;1.52;;;;;;;18.88;78.65;101353.47;4918776;29;20038;-76
2021/10/07 09:27:27;;;;;;;1.48;1.45;;;;;;;18.99;78.28;101360.47;4924052;29;20067;-77
2021/10/07 09:29:55;;;;;;;2.20;2.10;;;;;;;18.93;78.26;101350.59;4918219;29;20023;-75
2021/10/07 09:32:30;;;;;;;1.83;1.73;;;;;;;18.94;78.02;101352.25;4928580;29;20043;-76
2021/10/07 09:34:58;;;;;;;2.60;2.40;;;;;;;18.94;78.22;101357.81;4927633;29;20050;-72
2021/10/07 09:37:44;;;;;;;1.60;1.60;;;;;;;18.94;78.55;101352.25;4929346;29;20031;-72
2021/10/07 09:40:18;;;;;;;2.55;2.45;;;;;;;19.00;77.89;101355.78;4935827;29;20438;-73
2021/10/07 09:42:46;;;;;;;1.45;1.35;;;;;;;19.08;78.26;101345.94;4939441;29;20470;-73
2021/10/07 09:45:20;;;;;;;3.67;2.00;;;;;;;19.15;77.59;101351.94;4924013;29;20059;-73
2021/10/07 09:48:06;;;;;;;2.22;2.13;;;;;;;19.24;77.32;101349.31;4926685;29;20164;-72
2021/10/07 09:50:31;;;;;;;3.15;1.83;;;;;;;19.27;77.17;101346.75;4923484;29;20028;-71
2021/10/07 09:53:06;;;;;;;1.15;1.15;;;;;;;19.36;77.56;101346.88;4918271;29;20067;-72
2021/10/07 09:55:38;;;;;;;1.80;1.70;;;;;;;19.49;77.27;101348.88;4913310;29;20028;-72
2021/10/07 09:58:24;;;;;;;2.15;2.05;;;;;;;19.51;76.40;101354.13;4924808;29;20125;-73
2021/10/07 10:00:55;;;;;;;1.95;1.85;;;;;;;19.48;76.50;101354.75;4932793;29;20040;-73
2021/10/07 10:03:21;;;;;;;2.55;2.35;;;;;;;19.47;75.84;101358.63;4929352;29;20485;-73
2021/10/07 10:05:49;;;;;;;2.55;2.45;;;;;;;19.42;76.10;101355.94;4921794;29;20055;-73
2021/10/07 10:08:17;;;;;;;2.50;2.30;;;;;;;19.38;75.82;101365.97;4934144;29;20031;-73
2021/10/07 10:10:45;;;;;;;2.30;2.20;;;;;;;19.34;75.41;101361.03;4916678;29;20722;-73
2021/10/07 10:13:13;;;;;;;1.73;1.63;;;;;;;19.29;75.54;101363.06;4934188;29;20385;-73
2021/10/07 10:15:38;;;;;;;1.77;1.67;;;;;;;19.25;75.95;101362.88;4934461;29;20031;-73
2021/10/07 10:18:08;;;;;;;1.17;1.17;;;;;;;19.27;75.92;101360.59;4916296;29;20386;-73
2021/10/07 10:20:37;;;;;;;1.40;1.30;;;;;;;19.28;75.91;101361.44;4923579;29;20046;-71
2021/10/07 10:23:09;;;;;;;1.60;1.50;;;;;;;19.34;75.69;101366.59;4923145;29;20032;-73
2021/10/07 10:25:56;;;;;;;2.55;2.38;;;;;;;19.53;76.04;101363.78;4928314;29;20067;-74
2021/10/07 10:28:28;;;;;;;1.80;1.70;;;;;;;19.73;75.72;101369.25;4920243;29;20027;-73
2021/10/07 10:31:04;;;;;;;2.35;2.05;;;;;;;19.97;75.20;101364.41;4932459;29;20038;-74
2021/10/07 10:33:33;;;;;;;1.95;1.85;;;;;;;20.03;73.95;101371.53;4932397;29;20051;-72
2021/10/07 10:36:01;;;;;;;1.88;1.77;;;;;;;20.16;73.90;101369.03;4934501;29;20038;-72
2021/10/07 10:38:28;;;;;;;1.30;1.30;;;;;;;20.29;73.70;101379.31;4928826;29;20047;-72
2021/10/07 10:41:07;;;;;;;1.88;1.77;;;;;;;20.34;72.88;101370.91;4929661;29;20068;-73
2021/10/07 10:43:34;;;;;;;2.67;1.65;;;;;;;20.38;72.68;101371.94;4929614;29;20075;-71
2021/10/07 10:46:05;;;;;;;1.50;1.40;;;;;;;20.48;72.69;101370.06;4935558;29;20383;-73
2021/10/07 10:48:40;;;;;;;1.40;1.40;;;;;;;20.50;72.31;101378.91;4935704;29;20038;-73
2021/10/07 10:51:09;;;;;;;3.60;1.30;;;;;;;20.54;71.67;101372.41;4935626;29;20588;-73
2021/10/07 10:53:57;;;;;;;1.48;1.38;;;;;;;20.68;71.82;101380.75;4948237;28;20028;-73
2021/10/07 10:56:22;;;;;;;6.70;1.77;;;;;;;20.74;71.14;101371.19;4928870;29;20034;-73
2021/10/07 10:59:20;;;;;;;1.35;1.33;;;;;;;20.83;70.84;101376.00;4900256;29;20394;-72
2021/10/07 11:02:17;;;;;;;1.23;1.17;;;;;;;20.81;70.61;101383.81;4926597;29;20071;-73
2021/10/07 11:04:46;;;;;;;;;;;;;;;20.90;70.31;101376.41;4930255;29;20028;-72
2021/10/07 11:07:35;;;;;;;2.58;2.38;;;;;;;20.85;70.24;101373.72;4935409;29;19918;-72
2021/10/07 11:10:13;;;;;;;2.00;1.90;;;;;;;20.85;70.18;101376.50;4928674;29;20026;-72
2021/10/07 11:12:50;;;;;;;1.50;1.40;;;;;;;20.90;70.16;101376.41;4936453;29;20019;-72
2021/10/07 11:15:18;;;;;;;5.57;2.67;;;;;;;20.85;69.06;101373.72;4941015;29;20042;-71
2021/10/07 11:17:45;;;;;;;5.10;4.60;;;;;;;20.86;69.33;101380.94;4919268;29;20557;-71
2021/10/07 11:20:29;;;;;;;3.28;2.97;;;;;;;20.95;69.32;101379.06;4933531;29;20501;-72
2021/10/07 11:23:13;;;;;;;1.95;1.83;;;;;;;21.02;68.17;101392.53;4931553;29;20110;-72
2021/10/07 11:26:01;;;;;;;2.17;2.08;;;;;;;21.01;67.85;101394.50;4931389;29;20110;-71
2021/10/07 11:28:30;;;;;;;1.35;1.35;;;;;;;21.02;68.01;101396.13;4937855;29;20046;-72
2021/10/07 11:31:14;;;;;;;1.83;1.73;;;;;;;21.02;67.00;101401.69;4925410;29;20032;-72
2021/10/07 11:33:51;;;;;;;1.67;1.58;;;;;;;20.89;66.84;101406.13;4916846;29;20155;-72
2021/10/07 11:36:20;;;;;;;1.90;1.70;;;;;;;20.77;66.97;101402.28;4921549;29;20034;-74
2021/10/07 11:38:47;;;;;;;1.20;1.20;;;;;;;20.71;67.54;101396.00;4919481;29;20032;-71
2021/10/07 11:41:16;;;;;;;1.50;1.40;;;;;;;20.72;67.81;101398.47;4930848;29;20023;-70
2021/10/07 11:43:43;;;;;;;1.25;1.23;;;;;;;20.70;67.37;101395.16;4932124;29;20055;-72
2021/10/07 11:46:12;;;;;;;2.28;1.40;;;;;;;20.71;67.31;101396.81;4918551;29;20099;-70
2021/10/07 11:48:43;;;;;;;2.00;1.90;;;;;;;20.82;67.05;101391.03;4918231;29;20371;-71
2021/10/07 11:51:09;;;;;;;1.58;1.48;;;;;;;20.95;67.40;101395.72;4940455;29;20031;-72
2021/10/07 11:53:43;;;;;;;1.02;0.93;;;;;;;21.15;66.88;101394.44;4930575;29;20030;-73
2021/10/07 11:56:24;;;;;;;0.93;0.73;;;;;;;21.32;66.17;101409.63;4915466;29;20036;-73
2021/10/07 11:59:02;;;;;;;0.93;0.93;;;;;;;21.26;65.56;101401.41;4933299;29;20039;-71
2021/10/07 12:01:33;;;;;;;0.70;0.70;;;;;;;21.26;65.42;101398.63;4925762;29;20024;-72
2021/10/07 12:04:00;;;;;;;1.27;0.90;;;;;;;21.36;65.81;101399.50;4927854;29;20401;-72
2021/10/07 12:06:27;;;;;;;0.90;0.90;;;;;;;21.39;65.25;101399.72;4895404;29;20040;-73
2021/10/07 12:08:52;;;;;;;0.60;0.60;;;;;;;21.53;65.58;101393.28;4908053;29;20053;-73
2021/10/07 12:11:26;;;;;;;1.48;1.38;;;;;;;21.73;64.69;101398.31;4932247;29;20043;-73
2021/10/07 12:14:00;;;;;;;1.20;1.15;;;;;;;21.90;64.19;101402.34;4936527;29;20099;-73
2021/10/07 12:16:37;;;;;;;1.35;1.02;;;;;;;22.27;64.33;101405.81;4927307;29;20036;-74
2021/10/07 12:19:27;;;;;;;1.42;1.33;;;;;;;22.59;62.12;101409.34;4929488;29;20706;-75
2021/10/07 12:22:00;;;;;;;2.35;1.10;;;;;;;22.51;61.56;101405.41;4931937;29;20121;-73
2021/10/07 12:24:30;;;;;;;1.15;1.00;;;;;;;22.36;61.95;101409.47;4931501;29;20034;-71
2021/10/07 12:26:57;;;;;;;2.25;1.52;;;;;;;22.27;62.43;101394.66;4932244;29;20070;-74
2021/10/07 12:29:28;;;;;;;1.58;1.15;;;;;;;22.29;62.62;101395.16;4923031;29;20382;-73
2021/10/07 12:32:00;;;;;;;4.72;0.88;;;;;;;22.37;62.45;101393.56;4918429;29;20028;-73
2021/10/07 12:34:36;;;;;;;1.13;0.93;;;;;;;22.36;62.30;101392.75;4915719;29;20039;-72
2021/10/07 12:37:08;;;;;;;1.60;1.02;;;;;;;22.35;61.86;101405.03;4929166;29;20036;-72
2021/10/07 12:39:39;;;;;;;0.93;0.75;;;;;;;22.33;61.48;101398.97;4932660;29;20032;-74
2021/10/07 12:42:23;;;;;;;1.45;0.90;;;;;;;22.30;62.38;101405.16;4925804;29;20032;-73
2021/10/07 12:45:00;;;;;;;1.33;0.70;;;;;;;22.34;62.12;101400.63;4927563;29;20039;-73
2021/10/07 12:47:34;;;;;;;0.60;0.60;;;;;;;22.35;62.30;101402.25;4924848;29;20433;-71
2021/10/07 12:50:05;;;;;;;4.13;0.55;;;;;;;22.34;62.09;101400.63;4926924;29;20027;-73
2021/10/07 12:52:38;;;;;;;0.77;0.50;;;;;;;22.39;61.90;101392.09;4931436;29;20039;-72
2021/10/07 12:55:15;;;;;;;0.38;0.38;;;;;;;22.52;61.68;101395.09;4928508;29;20032;-72
2021/10/07 12:57:48;;;;;;;0.40;0.40;;;;;;;22.52;61.58;101407.06;4918779;29;20036;-72
2021/10/07 13:00:35;;;;;;;1.58;0.88;;;;;;;22.48;61.09;101395.72;4927295;29;20035;-72
2021/10/07 13:03:18;;;;;;;0.30;0.30;;;;;;;22.55;61.48;101388.88;4931622;29;20047;-75
2021/10/07 13:05:45;;;;;;;1.75;1.65;;;;;;;22.64;60.81;101396.09;4941688;29;20115;-73
2021/10/07 13:08:13;;;;;;;3.28;1.08;;;;;;;22.77;60.17;101385.94;4915816;29;20125;-73
2021/10/07 13:10:43;;;;;;;2.67;0.60;;;;;;;22.95;59.45;101386.78;4919527;29;20352;-72
2021/10/07 13:13:09;;;;;;;0.65;0.65;;;;;;;22.98;59.90;101383.38;4932732;29;20031;-73
2021/10/07 13:15:36;;;;;;;1.23;1.00;;;;;;;23.00;58.83;101383.03;4930961;29;20413;-74
2021/10/07 13:18:02;;;;;;;2.28;0.88;;;;;;;23.17;59.07;101388.66;4940618;29;20042;-73
2021/10/07 13:20:27;;;;;;;1.88;1.17;;;;;;;23.51;58.48;101380.56;4949549;29;20388;-74
2021/10/07 13:22:53;;;;;;;0.75;0.75;;;;;;;24.02;57.51;101383.56;4941704;29;20034;-73
2021/10/07 13:25:18;;;;;;;0.93;0.70;;;;;;;24.54;55.25;101377.69;4925709;29;20036;-75
2021/10/07 13:27:46;;;;;;;0.77;0.47;;;;;;;25.12;55.16;101385.56;4921179;29;20479;-73
2021/10/07 13:30:14;;;;;;;1.67;1.10;;;;;;;26.46;54.81;101396.66;4908079;29;20028;-73
2021/10/07 13:32:42;;;;;;;0.63;0.52;;;;;;;28.07;50.44;101394.09;4907760;29;20463;-74
2021/10/07 13:35:07;;;;;;;0.40;0.40;;;;;;;29.04;48.60;101396.41;4932807;29;20043;-74
2021/10/07 13:37:33;;;;;;;1.33;0.70;;;;;;;29.32;44.91;101401.03;4914035;29;20032;-73
2021/10/07 13:40:00;;;;;;;1.15;0.45;;;;;;;30.05;43.91;101397.53;4891817;29;20495;-72
2021/10/07 13:42:26;;;;;;;1.63;0.40;;;;;;;30.29;40.47;101399.16;4894408;29;20100;-73
2021/10/07 13:44:51;;;;;;;0.88;0.50;;;;;;;29.68;41.07;101392.44;4932363;29;20056;-74
2021/10/07 13:47:17;;;;;;;1.13;0.52;;;;;;;29.27;42.65;101404.13;4932964;29;20027;-74
2021/10/07 13:49:43;;;;;;;1.42;0.50;;;;;;;28.65;43.08;101396.34;4916112;29;20087;-73
2021/10/07 13:52:09;;;;;;;3.38;0.80;;;;;;;28.05;44.19;101396.44;4940843;29;20129;-73
2021/10/07 13:54:36;;;;;;;0.90;0.90;;;;;;;27.62;45.46;101396.09;4917464;29;20490;-72
2021/10/07 13:57:03;;;;;;;1.10;0.73;;;;;;;28.56;44.27;101393.69;4938002;29;20038;-73
2021/10/07 13:59:28;;;;;;;0.82;0.82;;;;;;;29.41;42.52;101389.53;4933576;29;20035;-71
2021/10/07 14:01:54;;;;;;;1.80;0.70;;;;;;;30.26;40.58;101397.09;4929175;29;20023;-72
2021/10/07 14:04:19;;;;;;;0.60;0.40;;;;;;;30.34;39.72;101409.28;4896005;29;20038;-74
2021/10/07 14:06:49;;;;;;;1.23;0.60;;;;;;;30.21;41.17;101397.41;4932291;29;20033;-72
2021/10/07 14:09:15;;;;;;;0.47;0.30;;;;;;;31.11;39.87;101402.38;4936825;29;20053;-72
2021/10/07 14:11:44;;;;;;;0.95;0.50;;;;;;;31.89;38.11;101402.84;4934626;29;20450;-73
2021/10/07 14:14:10;;;;;;;5.55;0.60;;;;;;;32.43;35.81;101401.31;4912338;29;20139;-72
2021/10/07 14:16:38;;;;;;;1.98;0.80;;;;;;;32.92;34.43;101402.03;4917524;29;20127;-72
2021/10/07 14:19:04;;;;;;;1.67;0.50;;;;;;;33.23;33.26;101409.06;4895161;29;20092;-73
2021/10/07 14:21:29;;;;;;;0.82;0.70;;;;;;;33.36;33.60;101403.06;4881555;29;20497;-72
2021/10/07 14:23:55;;;;;;;1.55;0.70;;;;;;;33.75;32.70;101402.38;4923529;29;20028;-73
2021/10/07 14:26:23;;;;;;;0.60;0.60;;;;;;;33.92;31.82;101403.56;4931299;29;20044;-73
2021/10/07 14:28:49;;;;;;;0.85;0.80;;;;;;;33.20;32.25;101403.38;4910310;29;20032;-74
2021/10/07 14:31:14;;;;;;;1.75;0.70;;;;;;;32.71;33.09;101411.25;4932533;29;20043;-73
2021/10/07 14:33:40;;;;;;;2.38;0.80;;;;;;;32.64;33.30;101416.81;4928632;29;20144;-74
2021/10/07 14:36:05;;;;;;;0.60;0.60;;;;;;;32.49;33.11;101411.06;4932485;29;20050;-74
2021/10/07 14:38:31;;;;;;;0.70;0.50;;;;;;;31.96;33.91;101415.03;4929202;29;20051;-74
2021/10/07 14:40:56;;;;;;;1.23;0.73;;;;;;;31.74;33.93;101405.53;4912400;29;20112;-73
2021/10/07 14:43:37;;;;;;;;;;;;;;;;;;;;;
2021/10/07 14:46:06;;;;;;;0.65;0.65;;;;;;;28.95;38.13;101392.97;4924556;29;20050;-77
2021/10/07 14:48:31;;;;;;;0.88;0.50;;;;;;;27.71;41.27;101397.94;4925855;29;20032;-74
2021/10/07 14:50:59;;;;;;;0.52;0.50;;;;;;;27.10;43.34;101391.41;4929126;29;20031;-72
2021/10/07 14:53:30;;;;;;;0.47;0.47;;;;;;;27.14;43.05;101375.47;4953372;28;20501;-73
2021/10/07 14:56:03;;;;;;;0.60;0.60;;;;;;;27.59;43.04;101401.66;4933724;29;20027;-75
2021/10/07 14:58:28;;;;;;;0.98;0.88;;;;;;;28.17;41.06;101398.38;4926225;29;20043;-73
2021/10/07 15:00:54;;;;;;;2.47;0.70;;;;;;;28.37;40.91;101385.19;4930199;29;20090;-73
2021/10/07 15:03:19;;;;;;;1.38;1.27;;;;;;;29.16;39.94;101400.22;4897733;29;20036;-73
2021/10/07 15:05:47;;;;;;;1.00;1.00;;;;;;;29.16;39.97;101383.34;4915911;29;20054;-74
2021/10/07 15:08:12;;;;;;;1.65;1.08;;;;;;;29.62;39.31;101383.47;4893098;29;20036;-73
2021/10/07 15:10:38;;;;;;;0.85;0.80;;;;;;;30.41;37.51;101396.16;4913493;29;20020;-75
2021/10/07 15:13:03;;;;;;;1.15;0.93;;;;;;;30.85;36.17;101397.59;4911997;29;20502;-74
2021/10/07 15:15:33;;;;;;;2.58;1.30;;;;;;;31.31;36.08;101399.41;4944663;28;20043;-74
2021/10/07 15:17:58;;;;;;;1.60;1.40;;;;;;;31.06;34.97;101410.38;4916107;29;20036;-74
2021/10/07 15:20:29;;;;;;;0.70;0.70;;;;;;;30.29;36.81;101401.97;4918520;29;20058;-72
2021/10/07 15:22:55;;;;;;;2.17;0.88;;;;;;;29.99;36.89;101397.03;4933949;29;20363;-72
2021/10/07 15:25:21;;;;;;;1.30;1.20;;;;;;;29.65;37.60;101410.09;4923925;29;20083;-75
2021/10/07 15:27:47;;;;;;;1.80;1.30;;;;;;;28.96;38.67;101416.31;4946260;28;20051;-73
2021/10/07 15:30:18;;;;;;;1.30;1.20;;;;;;;27.82;40.24;101422.34;4928515;29;20055;-73
2021/10/07 15:32:45;;;;;;;5.72;1.15;;;;;;;26.71;42.34;101419.06;4923034;29;20055;-73
2021/10/07 15:35:10;;;;;;;2.92;1.40;;;;;;;25.94;43.95;101409.31;4926054;29;20031;-74
2021/10/07 15:37:46;;;;;;;;;;;;;;;;;;;;;
2021/10/07 15:48:26;;;;;;;;;;;;;;;;;;;;;
2021/10/07 15:50:54;;;;;;;5.65;1.67;;;;;;;23.45;50.71;101402.25;4854896;29;20036;-76
2021/10/07 15:53:20;;;;;;;3.53;1.13;;;;;;;23.22;51.14;101403.56;4884210;29;20096;-74
2021/10/07 15:55:54;;;;;;;1.30;1.20;;;;;;;22.94;52.18;101399.09;4927641;29;20039;-73
2021/10/07 15:58:58;;;;;;;;;;;;;;;;;;;;;
2021/10/07 16:01:24;;;;;;;1.95;1.60;;;;;;;22.45;52.91;101401.94;4928467;29;20032;-75
2021/10/07 16:04:46;;;;;;;1.95;1.45;;;;;;;22.40;53.22;101416.03;4928754;29;20122;-75
2021/10/07 16:07:38;;;;;;;1.88;1.23;;;;;;;22.40;53.43;101415.19;4906220;29;20051;-72
2021/10/07 16:10:06;;;;;;;2.53;1.20;;;;;;;22.49;54.37;101408.53;4917063;29;20051;-73
2021/10/07 16:12:35;;;;;;;2.55;1.70;;;;;;;22.65;53.95;101410.88;4931900;29;20027;-73
2021/10/07 16:15:23;;;;;;;2.05;1.88;;;;;;;22.43;54.36;101412.59;4929307;29;20080;-74
2021/10/07 16:18:02;;;;;;;4.07;1.55;;;;;;;22.16;53.61;101418.38;4917443;29;20044;-73
2021/10/07 16:20:27;;;;;;;1.00;1.00;;;;;;;22.00;54.82;101429.09;4917409;29;20048;-76
2021/10/07 16:22:53;;;;;;;1.73;1.23;;;;;;;21.78;55.51;101433.56;4913496;29;20088;-74
2021/10/07 16:25:18;;;;;;;3.50;1.63;;;;;;;21.57;56.07;101433.25;4926284;29;20039;-75
2021/10/07 16:27:44;;;;;;;1.10;0.80;;;;;;;21.36;55.90;101422.59;4918948;29;20045;-78
2021/10/07 16:30:10;;;;;;;3.08;1.25;;;;;;;21.25;56.19;101421.19;4936045;29;20024;-77
2021/10/07 16:43:07;;;;;;;1.50;1.40;;;;;;;20.38;59.18;101413.59;4873586;29;20126;-75
2021/10/07 16:45:33;;;;;;;1.60;1.40;;;;;;;20.22;59.46;101412.25;4872337;29;20052;-75
2021/10/07 16:48:10;;;;;;;1.23;1.13;;;;;;;20.13;60.25;101425.19;4896237;29;20096;-76
2021/10/07 16:50:43;;;;;;;1.20;1.10;;;;;;;19.98;60.11;101424.34;4898565;29;20031;-77
2021/10/07 16:53:09;;;;;;;1.58;1.48;;;;;;;19.92;61.13;101436.69;4898724;29;20423;-76
2021/10/07 16:55:42;;;;;;;2.05;1.42;;;;;;;19.74;61.51;101423.63;4903233;29;20064;-81
2021/10/07 16:58:08;;;;;;;1.00;1.00;;;;;;;19.68;61.72;101432.06;4896282;29;20028;-76
2021/10/07 17:00:36;;;;;;;4.40;2.10;;;;;;;19.60;62.28;101435.53;4913930;29;20055;-75